| time (UTC) | temp F | wind direction | speed MPH | gust MPH | rain 1hr in | rain 24hr in | rain mn in | humidity % | barometer mb |
| 20260509224106 | 65 | 344 | 2.0 | 10.0 | 0.00 | 0.24 | 0.24 | 62 | 976.5 |
| 20260509223603 | 65 | 227 | 3.0 | 8.0 | 0.00 | 0.24 | 0.24 | 63 | 976.2 |
| 20260509223101 | 66 | 263 | 2.0 | 2.0 | 0.00 | 0.24 | 0.24 | 63 | 976.3 |
| 20260509222556 | 66 | 239 | 3.0 | 8.0 | 0.00 | 0.24 | 0.24 | 62 | 976.3 |
| 20260509222053 | 66 | 248 | 3.0 | 8.0 | 0.00 | 0.24 | 0.24 | 63 | 975.9 |
| 20260509221548 | 66 | 241 | 4.0 | 10.0 | 0.00 | 0.24 | 0.24 | 61 | 976.5 |
| 20260509221045 | 66 | 260 | 5.0 | 10.0 | 0.00 | 0.24 | 0.24 | 62 | 976.4 |
| 20260509220541 | 67 | 165 | 2.0 | 6.0 | 0.00 | 0.24 | 0.24 | 62 | 976.3 |
| 20260509220037 | 68 | 223 | 2.0 | 6.0 | 0.00 | 0.24 | 0.24 | 63 | 976.2 |
| 20260509215532 | 67 | 258 | 1.0 | 6.0 | 0.00 | 0.24 | 0.24 | 61 | 976.3 |
| 20260509215030 | 67 | 173 | 3.0 | 5.0 | 0.00 | 0.24 | 0.24 | 63 | 976.6 |
| 20260509214527 | 67 | 277 | 5.0 | 7.0 | 0.00 | 0.24 | 0.24 | 61 | 976.4 |
| 20260509214024 | 67 | 258 | 2.0 | 8.0 | 0.00 | 0.24 | 0.24 | 62 | 976.3 |
| 20260509213520 | 67 | 221 | 4.0 | 7.0 | 0.00 | 0.24 | 0.24 | 61 | 976.5 |
| 20260509213017 | 67 | 118 | 6.0 | 8.0 | 0.00 | 0.24 | 0.24 | 61 | 976.4 |
| 20260509212514 | 67 | 280 | 2.0 | 8.0 | 0.00 | 0.24 | 0.24 | 61 | 976.4 |
| 20260509212011 | 67 | 240 | 1.0 | 6.0 | 0.00 | 0.24 | 0.24 | 61 | 976.5 |
| 20260509211506 | 66 | 261 | 2.0 | 5.0 | 0.00 | 0.24 | 0.24 | 62 | 976.5 |
| 20260509211003 | 67 | 258 | 2.0 | 3.0 | 0.00 | 0.24 | 0.24 | 61 | 976.3 |
| 20260509210500 | 68 | 281 | 1.0 | 3.0 | 0.00 | 0.24 | 0.24 | 60 | 976.5 |
| 20260509205956 | 68 | 21 | 7.0 | 11.0 | 0.00 | 0.24 | 0.24 | 61 | 976.6 |
| 20260509205450 | 67 | 253 | 0.0 | 3.0 | 0.00 | 0.24 | 0.24 | 62 | 976.7 |
| 20260509204946 | 67 | 217 | 5.0 | 9.0 | 0.00 | 0.24 | 0.24 | 60 | 976.7 |
| 20260509204443 | 68 | 319 | 5.0 | 10.0 | 0.00 | 0.24 | 0.24 | 59 | 977.0 |
| 20260509203940 | 67 | 271 | 1.0 | 5.0 | 0.00 | 0.24 | 0.24 | 61 | 977.0 |
| 20260509203435 | 66 | 53 | 5.0 | 9.0 | 0.00 | 0.24 | 0.24 | 62 | 977.1 |
| 20260509202933 | 66 | 256 | 3.0 | 8.0 | 0.00 | 0.24 | 0.24 | 63 | 977.3 |
| 20260509202429 | 66 | 280 | 0.0 | 3.0 | 0.00 | 0.24 | 0.24 | 63 | 977.3 |
| 20260509201924 | 66 | 103 | 4.0 | 7.0 | 0.00 | 0.24 | 0.24 | 64 | 977.5 |
| 20260509201419 | 66 | 243 | 4.0 | 8.0 | 0.00 | 0.24 | 0.24 | 62 | 977.4 |
| 20260509200917 | 67 | 175 | 5.0 | 9.0 | 0.00 | 0.24 | 0.24 | 62 | 977.5 |
| 20260509200416 | 68 | 251 | 4.0 | 6.0 | 0.00 | 0.24 | 0.24 | 60 | 977.3 |
| 20260509195914 | 67 | 268 | 2.0 | 5.0 | 0.00 | 0.24 | 0.24 | 62 | 977.2 |
| 20260509195409 | 67 | 290 | 1.0 | 8.0 | 0.00 | 0.24 | 0.24 | 63 | 977.9 |
| 20260509194908 | 67 | 216 | 3.0 | 6.0 | 0.00 | 0.24 | 0.24 | 63 | 978.0 |
| 20260509194405 | 67 | 203 | 2.0 | 6.0 | 0.00 | 0.24 | 0.24 | 65 | 977.9 |
| 20260509193902 | 67 | 294 | 1.0 | 6.0 | 0.00 | 0.24 | 0.24 | 65 | 977.8 |
| 20260509193402 | 66 | 253 | 3.0 | 8.0 | 0.00 | 0.24 | 0.24 | 63 | 977.8 |
| 20260509192858 | 68 | 218 | 2.0 | 3.0 | 0.00 | 0.24 | 0.24 | 68 | 977.9 |
| 20260509192354 | 67 | 318 | 2.0 | 6.0 | 0.00 | 0.24 | 0.24 | 63 | 977.7 |
| 20260509191850 | 66 | 258 | 1.0 | 6.0 | 0.00 | 0.24 | 0.24 | 64 | 977.8 |
| 20260509191345 | 66 | 102 | 4.0 | 6.0 | 0.00 | 0.24 | 0.24 | 66 | 978.0 |
| 20260509190842 | 66 | 261 | 1.0 | 11.0 | 0.00 | 0.24 | 0.24 | 66 | 978.1 |
| 20260509190339 | 65 | 268 | 3.0 | 7.0 | 0.00 | 0.24 | 0.24 | 69 | 978.1 |
| 20260509185836 | 66 | 220 | 5.0 | 8.0 | 0.00 | 0.24 | 0.24 | 65 | 978.1 |
| 20260509185333 | 66 | 289 | 4.0 | 6.0 | 0.00 | 0.24 | 0.24 | 67 | 978.2 |
| 20260509184830 | 64 | 275 | 3.0 | 7.0 | 0.00 | 0.24 | 0.24 | 68 | 978.2 |
| 20260509184327 | 63 | 178 | 5.0 | 8.0 | 0.00 | 0.24 | 0.24 | 70 | 978.4 |
| 20260509183823 | 63 | 108 | 7.0 | 9.0 | 0.00 | 0.24 | 0.24 | 70 | 978.3 |
| 20260509183319 | 65 | 146 | 3.0 | 6.0 | 0.00 | 0.24 | 0.24 | 68 | 978.3 |
| 20260509182815 | 64 | 281 | 1.0 | 3.0 | 0.00 | 0.24 | 0.24 | 70 | 978.4 |
| 20260509182312 | 64 | 177 | 3.0 | 7.0 | 0.00 | 0.24 | 0.24 | 72 | 978.3 |
| 20260509181809 | 63 | 248 | 1.0 | 6.0 | 0.00 | 0.24 | 0.24 | 73 | 978.1 |
| 20260509181307 | 62 | 188 | 4.0 | 10.0 | 0.00 | 0.24 | 0.24 | 73 | 978.3 |
| 20260509180804 | 62 | 236 | 4.0 | 6.0 | 0.00 | 0.24 | 0.24 | 73 | 978.4 |
| 20260509180300 | 62 | 305 | 1.0 | 5.0 | 0.00 | 0.24 | 0.24 | 76 | 978.6 |
| 20260509175756 | 64 | 77 | 4.0 | 7.0 | 0.00 | 0.24 | 0.24 | 74 | 978.3 |
| 20260509175253 | 63 | 288 | 2.0 | 8.0 | 0.00 | 0.24 | 0.24 | 74 | 978.4 |
| 20260509174749 | 63 | 276 | 0.0 | 5.0 | 0.00 | 0.24 | 0.24 | 73 | 978.5 |
| 20260509174244 | 63 | 290 | 3.0 | 6.0 | 0.00 | 0.24 | 0.24 | 73 | 978.5 |
| 20260509173740 | 63 | 273 | 0.0 | 7.0 | 0.00 | 0.24 | 0.24 | 74 | 978.4 |
| 20260509173236 | 63 | 285 | 3.0 | 5.0 | 0.00 | 0.24 | 0.24 | 75 | 978.6 |
| 20260509172733 | 62 | 264 | 4.0 | 6.0 | 0.00 | 0.24 | 0.24 | 77 | 978.6 |
| 20260509172229 | 63 | 217 | 4.0 | 6.0 | 0.00 | 0.24 | 0.24 | 76 | 978.9 |
| 20260509171724 | 62 | 280 | 0.0 | 2.0 | 0.00 | 0.24 | 0.24 | 78 | 978.8 |
| 20260509171221 | 60 | 278 | 1.0 | 3.0 | 0.00 | 0.24 | 0.24 | 81 | 978.6 |
| 20260509170718 | 60 | 265 | 1.0 | 3.0 | 0.00 | 0.24 | 0.24 | 80 | 978.8 |
| 20260509170214 | 59 | 256 | 1.0 | 6.0 | 0.00 | 0.24 | 0.24 | 83 | 978.7 |
| 20260509165713 | 60 | 198 | 4.0 | 7.0 | 0.00 | 0.24 | 0.24 | 81 | 978.8 |
| 20260509165208 | 60 | 271 | 3.0 | 3.0 | 0.00 | 0.24 | 0.24 | 81 | 978.9 |
| 20260509164704 | 59 | 271 | 1.0 | 3.0 | 0.00 | 0.24 | 0.24 | 83 | 979.0 |
| 20260509164200 | 59 | 254 | 2.0 | 2.0 | 0.00 | 0.24 | 0.24 | 84 | 979.0 |
| 20260509163657 | 58 | 274 | 0.0 | 2.0 | 0.00 | 0.24 | 0.24 | 85 | 979.1 |
| 20260509163154 | 58 | 145 | 3.0 | 5.0 | 0.00 | 0.24 | 0.24 | 86 | 979.1 |
| 20260509162651 | 58 | 277 | 1.0 | 3.0 | 0.00 | 0.24 | 0.24 | 85 | 978.8 |
| 20260509162147 | 57 | 265 | 0.0 | 1.0 | 0.00 | 0.24 | 0.24 | 87 | 978.9 |
| 20260509161643 | 57 | 269 | 2.0 | 2.0 | 0.00 | 0.24 | 0.24 | 88 | 978.8 |
| 20260509161138 | 56 | 268 | 1.0 | 2.0 | 0.00 | 0.24 | 0.24 | 89 | 979.1 |
| 20260509160634 | 55 | 247 | 2.0 | 7.0 | 0.00 | 0.24 | 0.24 | 88 | 979.1 |
| 20260509160130 | 56 | 269 | 1.0 | 6.0 | 0.00 | 0.24 | 0.24 | 89 | 979.0 |
| 20260509155626 | 56 | 274 | 1.0 | 5.0 | 0.00 | 0.24 | 0.24 | 90 | 978.8 |
| 20260509155122 | 56 | 272 | 1.0 | 2.0 | 0.00 | 0.24 | 0.24 | 89 | 979.1 |
| 20260509154618 | 55 | 286 | 2.0 | 2.0 | 0.00 | 0.24 | 0.24 | 90 | 979.2 |
| 20260509154116 | 56 | 267 | 2.0 | 3.0 | 0.00 | 0.24 | 0.24 | 90 | 979.0 |
| 20260509153613 | 55 | 277 | 2.0 | 3.0 | 0.00 | 0.24 | 0.24 | 90 | 979.1 |
| 20260509153109 | 55 | 267 | 1.0 | 3.0 | 0.00 | 0.24 | 0.24 | 91 | 979.0 |
| 20260509152605 | 55 | 277 | 1.0 | 3.0 | 0.00 | 0.24 | 0.24 | 91 | 979.1 |
| 20260509152103 | 55 | 267 | 2.0 | 3.0 | 0.00 | 0.24 | 0.24 | 90 | 978.9 |
| 20260509151559 | 55 | 270 | 1.0 | 3.0 | 0.00 | 0.24 | 0.24 | 91 | 978.9 |
| 20260509151057 | 55 | 273 | 1.0 | 6.0 | 0.00 | 0.24 | 0.24 | 91 | 979.1 |
| 20260509150554 | 55 | 275 | 0.0 | 2.0 | 0.00 | 0.24 | 0.24 | 91 | 979.1 |
| 20260509150053 | 55 | 274 | 0.0 | 2.0 | 0.00 | 0.24 | 0.24 | 91 | 978.9 |
| 20260509145548 | 54 | 272 | 1.0 | 3.0 | 0.00 | 0.24 | 0.24 | 93 | 979.1 |
| 20260509145043 | 54 | 275 | 2.0 | 3.0 | 0.00 | 0.24 | 0.24 | 92 | 979.0 |
| 20260509144540 | 54 | 244 | 3.0 | 7.0 | 0.00 | 0.24 | 0.24 | 92 | 979.1 |
| 20260509144037 | 53 | 299 | 1.0 | 1.0 | 0.00 | 0.24 | 0.24 | 93 | 979.0 |
| 20260509143535 | 53 | 345 | 3.0 | 3.0 | 0.00 | 0.24 | 0.24 | 93 | 979.0 |
| 20260509143032 | 53 | 272 | 0.0 | 2.0 | 0.00 | 0.24 | 0.24 | 94 | 979.1 |
| 20260509142527 | 53 | 27 | 4.0 | 5.0 | 0.00 | 0.24 | 0.24 | 93 | 978.8 |
| 20260509142023 | 53 | 268 | 1.0 | 3.0 | 0.00 | 0.24 | 0.24 | 94 | 978.9 |
| 20260509141520 | 53 | 103 | 5.0 | 6.0 | 0.00 | 0.24 | 0.24 | 94 | 978.9 |
| 20260509141017 | 53 | 275 | 1.0 | 3.0 | 0.00 | 0.24 | 0.24 | 94 | 978.7 |
| 20260509140514 | 53 | 272 | 2.0 | 5.0 | 0.00 | 0.24 | 0.24 | 94 | 979.2 |
| 20260509140012 | 53 | 241 | 1.0 | 1.0 | 0.00 | 0.24 | 0.24 | 95 | 979.2 |
| 20260509135508 | 53 | 282 | 0.0 | 2.0 | 0.00 | 0.24 | 0.24 | 96 | 979.1 |
| 20260509135006 | 53 | 298 | 0.0 | 2.0 | 0.00 | 0.24 | 0.24 | 97 | 979.2 |
| 20260509134503 | 52 | 273 | 1.0 | 2.0 | 0.00 | 0.24 | 0.24 | 97 | 979.0 |
| 20260509134001 | 52 | 265 | 1.0 | 2.0 | 0.00 | 0.24 | 0.24 | 98 | 979.1 |
| 20260509133457 | 51 | 282 | 0.0 | 2.0 | 0.00 | 0.24 | 0.24 | 98 | 979.1 |
| 20260509132955 | 51 | 344 | 3.0 | 3.0 | 0.00 | 0.24 | 0.24 | 98 | 979.1 |
| 20260509132453 | 51 | 274 | 0.0 | 1.0 | 0.00 | 0.24 | 0.24 | 98 | 979.1 |
| 20260509131950 | 51 | 278 | 0.0 | 0.0 | 0.00 | 0.24 | 0.24 | 99 | 979.5 |
| 20260509131447 | 51 | 277 | 0.0 | 1.0 | 0.00 | 0.24 | 0.24 | 99 | 979.5 |
| 20260509130943 | 51 | 277 | 0.0 | 1.0 | 0.00 | 0.24 | 0.24 | 99 | 979.3 |
| 20260509130439 | 51 | 281 | 0.0 | 0.0 | 0.00 | 0.24 | 0.24 | 99 | 979.5 |
| 20260509125936 | 51 | 280 | 0.0 | 0.0 | 0.00 | 0.24 | 0.24 | 99 | 979.4 |
| 20260509125433 | 51 | 278 | 0.0 | 0.0 | 0.00 | 0.24 | 0.24 | 99 | 979.2 |
| 20260509124929 | 51 | 281 | 0.0 | 0.0 | 0.00 | 0.24 | 0.24 | 99 | 979.3 |
| 20260509124426 | 51 | 284 | 0.0 | 0.0 | 0.00 | 0.24 | 0.24 | 99 | 979.3 |
| 20260509123923 | 50 | 269 | 1.0 | 2.0 | 0.00 | 0.24 | 0.24 | 99 | 979.3 |
| 20260509123421 | 50 | 282 | 0.0 | 3.0 | 0.00 | 0.24 | 0.24 | 99 | 979.2 |
| 20260509122916 | 50 | 287 | 0.0 | 0.0 | 0.00 | 0.24 | 0.24 | 99 | 979.3 |
| 20260509122413 | 50 | 281 | 0.0 | 0.0 | 0.00 | 0.24 | 0.24 | 99 | 979.3 |
| 20260509121910 | 50 | 287 | 0.0 | 1.0 | 0.00 | 0.24 | 0.24 | 99 | 979.4 |
| 20260509121407 | 50 | 277 | 0.0 | 0.0 | 0.00 | 0.24 | 0.24 | 99 | 979.6 |
| 20260509120905 | 50 | 302 | 1.0 | 3.0 | 0.00 | 0.24 | 0.24 | 99 | 979.5 |
| 20260509120402 | 50 | 285 | 0.0 | 1.0 | 0.00 | 0.24 | 0.24 | 99 | 979.6 |
| 20260509115901 | 50 | 276 | 0.0 | 0.0 | 0.00 | 0.24 | 0.24 | 99 | 979.7 |
| 20260509115357 | 50 | 276 | 0.0 | 0.0 | 0.00 | 0.24 | 0.24 | 99 | 979.3 |
| 20260509114855 | 49 | 281 | 0.0 | 0.0 | 0.00 | 0.24 | 0.24 | 99 | 979.5 |
| 20260509114354 | 49 | 281 | 0.0 | 0.0 | 0.00 | 0.24 | 0.24 | 99 | 979.7 |
| 20260509113852 | 49 | 278 | 0.0 | 0.0 | 0.00 | 0.24 | 0.24 | 99 | 979.6 |
| 20260509113349 | 49 | 284 | 0.0 | 0.0 | 0.00 | 0.24 | 0.24 | 99 | 979.4 |
| 20260509112846 | 49 | 282 | 0.0 | 0.0 | 0.00 | 0.24 | 0.24 | 99 | 979.5 |
| 20260509112343 | 49 | 282 | 0.0 | 0.0 | 0.00 | 0.24 | 0.24 | 99 | 979.6 |
| 20260509111841 | 49 | 281 | 0.0 | 0.0 | 0.07 | 0.24 | 0.24 | 99 | 979.3 |
| 20260509111337 | 49 | 281 | 0.0 | 0.0 | 0.07 | 0.24 | 0.24 | 99 | 979.2 |
| 20260509110835 | 49 | 281 | 0.0 | 0.0 | 0.00 | 0.23 | 0.23 | 99 | 979.1 |
| 20260509110331 | 49 | 278 | 0.0 | 0.0 | 0.00 | 0.23 | 0.23 | 99 | 979.3 |
| 20260509105829 | 49 | 277 | 0.0 | 0.0 | 0.00 | 0.23 | 0.23 | 99 | 979.3 |
| 20260509105327 | 49 | 273 | 0.0 | 0.0 | 0.00 | 0.23 | 0.23 | 99 | 979.5 |
| 20260509104823 | 49 | 285 | 0.0 | 0.0 | 0.00 | 0.23 | 0.23 | 99 | 979.4 |
| 20260509104320 | 49 | 281 | 0.0 | 0.0 | 0.00 | 0.23 | 0.23 | 99 | 979.6 |
| 20260509103818 | 48 | 281 | 0.0 | 0.0 | 0.00 | 0.23 | 0.23 | 99 | 979.6 |
| 20260509103315 | 48 | 283 | 0.0 | 0.0 | 0.00 | 0.23 | 0.23 | 99 | 979.5 |
| 20260509102814 | 49 | 281 | 0.0 | 0.0 | 0.00 | 0.23 | 0.23 | 99 | 979.5 |
| 20260509102310 | 49 | 281 | 0.0 | 0.0 | 0.00 | 0.23 | 0.23 | 99 | 979.4 |
| 20260509101806 | 49 | 281 | 0.0 | 0.0 | 0.00 | 0.23 | 0.23 | 99 | 979.6 |
| 20260509101303 | 48 | 280 | 0.0 | 0.0 | 0.00 | 0.23 | 0.23 | 99 | 979.4 |
| 20260509100801 | 48 | 281 | 0.0 | 0.0 | 0.00 | 0.23 | 0.23 | 99 | 979.6 |
| 20260509100258 | 48 | 278 | 0.0 | 0.0 | 0.00 | 0.23 | 0.23 | 99 | 979.6 |
| 20260509095754 | 48 | 275 | 0.0 | 0.0 | 0.07 | 0.23 | 0.23 | 99 | 979.7 |
| 20260509095251 | 48 | 281 | 0.0 | 0.0 | 0.07 | 0.23 | 0.23 | 99 | 979.5 |
| 20260509094748 | 48 | 281 | 0.0 | 0.0 | 0.00 | 0.22 | 0.22 | 99 | 979.5 |
| 20260509094245 | 48 | 277 | 0.0 | 0.0 | 0.05 | 0.22 | 0.22 | 99 | 980.0 |
| 20260509093743 | 48 | 277 | 0.0 | 0.0 | 0.12 | 0.22 | 0.22 | 99 | 979.7 |
| 20260509093240 | 48 | 277 | 0.0 | 0.0 | 0.12 | 0.21 | 0.21 | 99 | 979.5 |
| 20260509092738 | 48 | 276 | 0.0 | 0.0 | 0.05 | 0.20 | 0.20 | 99 | 979.6 |
| 20260509092236 | 48 | 278 | 0.0 | 0.0 | 0.07 | 0.19 | 0.19 | 99 | 979.7 |
| 20260509091734 | 48 | 278 | 0.0 | 0.0 | 0.12 | 0.19 | 0.19 | 99 | 979.9 |
| 20260509091229 | 48 | 278 | 0.0 | 0.0 | 0.12 | 0.18 | 0.18 | 99 | 979.8 |
| 20260509090727 | 48 | 277 | 0.0 | 0.0 | 0.07 | 0.17 | 0.17 | 99 | 979.8 |
| 20260509090224 | 48 | 278 | 0.0 | 0.0 | 0.00 | 0.16 | 0.16 | 99 | 979.8 |
| 20260509085722 | 48 | 277 | 0.0 | 0.0 | 0.00 | 0.16 | 0.16 | 99 | 979.9 |
| 20260509085219 | 48 | 278 | 0.0 | 0.0 | 0.00 | 0.16 | 0.16 | 99 | 979.8 |
| 20260509084716 | 48 | 278 | 0.0 | 0.0 | 0.05 | 0.16 | 0.16 | 99 | 979.9 |
| 20260509084212 | 48 | 278 | 0.0 | 0.0 | 0.00 | 0.15 | 0.15 | 99 | 979.9 |
| 20260509083711 | 48 | 281 | 0.0 | 0.0 | 0.00 | 0.15 | 0.15 | 99 | 980.0 |
| 20260509083207 | 48 | 280 | 0.0 | 0.0 | 0.07 | 0.15 | 0.15 | 99 | 979.9 |
| 20260509082704 | 48 | 281 | 0.0 | 0.0 | 0.07 | 0.15 | 0.15 | 99 | 980.0 |
| 20260509082200 | 48 | 281 | 0.0 | 0.0 | 0.05 | 0.14 | 0.14 | 99 | 979.8 |
| 20260509081657 | 48 | 277 | 0.0 | 0.0 | 0.05 | 0.14 | 0.14 | 99 | 980.0 |
| 20260509081154 | 48 | 277 | 0.0 | 0.0 | 0.00 | 0.13 | 0.13 | 99 | 980.0 |
| 20260509080653 | 48 | 280 | 0.0 | 0.0 | 0.07 | 0.13 | 0.13 | 99 | 980.0 |
| 20260509080150 | 48 | 281 | 0.0 | 0.0 | 0.07 | 0.13 | 0.13 | 99 | 979.9 |
| 20260509075648 | 48 | 276 | 0.0 | 1.0 | 0.00 | 0.12 | 0.12 | 99 | 980.1 |
| 20260509075145 | 48 | 279 | 0.0 | 0.0 | 0.00 | 0.12 | 0.12 | 99 | 979.8 |
| 20260509074642 | 48 | 278 | 0.0 | 0.0 | 0.05 | 0.12 | 0.12 | 99 | 979.9 |
| 20260509074139 | 48 | 278 | 0.0 | 0.0 | 0.05 | 0.12 | 0.12 | 99 | 980.0 |
| 20260509073636 | 48 | 282 | 0.0 | 0.0 | 0.07 | 0.11 | 0.11 | 99 | 980.3 |
| 20260509073132 | 48 | 276 | 0.0 | 0.0 | 0.07 | 0.11 | 0.11 | 99 | 979.9 |
| 20260509072629 | 48 | 289 | 0.0 | 0.0 | 0.07 | 0.10 | 0.10 | 99 | 979.9 |
| 20260509072126 | 48 | 282 | 0.0 | 0.0 | 0.07 | 0.10 | 0.10 | 99 | 980.2 |
| 20260509071622 | 48 | 276 | 0.0 | 0.0 | 0.05 | 0.09 | 0.09 | 99 | 980.3 |
| 20260509071120 | 48 | 302 | 1.0 | 1.0 | 0.05 | 0.09 | 0.09 | 99 | 980.2 |
| 20260509070617 | 48 | 279 | 0.0 | 0.0 | 0.07 | 0.08 | 0.08 | 99 | 980.2 |
| 20260509070113 | 48 | 281 | 0.0 | 0.0 | 0.07 | 0.08 | 0.08 | 99 | 980.2 |
| 20260509065608 | 48 | 282 | 0.0 | 0.0 | 0.00 | 0.07 | 0.07 | 99 | 980.1 |
| 20260509065105 | 48 | 280 | 0.0 | 1.0 | 0.05 | 0.07 | 0.07 | 99 | 980.1 |
| 20260509064602 | 48 | 279 | 0.0 | 0.0 | 0.05 | 0.07 | 0.07 | 99 | 980.2 |
| 20260509064101 | 48 | 279 | 0.0 | 1.0 | 0.00 | 0.06 | 0.06 | 99 | 980.4 |
| 20260509063556 | 48 | 284 | 0.0 | 0.0 | 0.07 | 0.06 | 0.06 | 99 | 980.3 |
| 20260509063053 | 48 | 284 | 0.0 | 0.0 | 0.12 | 0.06 | 0.06 | 99 | 980.6 |
| 20260509062550 | 48 | 283 | 0.0 | 0.0 | 0.05 | 0.05 | 0.05 | 99 | 980.6 |
| 20260509062048 | 48 | 283 | 0.0 | 0.0 | 0.00 | 0.04 | 0.04 | 99 | 981.0 |
| 20260509061544 | 48 | 283 | 0.0 | 0.0 | 0.00 | 0.04 | 0.04 | 99 | 981.0 |
| 20260509061042 | 48 | 283 | 0.0 | 0.0 | 0.00 | 0.04 | 0.04 | 99 | 980.9 |
| 20260509060539 | 48 | 284 | 0.0 | 0.0 | 0.00 | 0.04 | 0.04 | 99 | 981.0 |
| 20260509060035 | 48 | 284 | 0.0 | 0.0 | 0.07 | 0.04 | 0.04 | 99 | 980.9 |
| 20260509055530 | 48 | 284 | 0.0 | 0.0 | 0.07 | 0.04 | 0.04 | 99 | 981.1 |
| 20260509055027 | 48 | 284 | 0.0 | 0.0 | 0.00 | 0.03 | 0.03 | 99 | 981.4 |
| 20260509054523 | 48 | 283 | 0.0 | 0.0 | 0.00 | 0.03 | 0.03 | 99 | 981.3 |
| 20260509054022 | 48 | 284 | 0.0 | 0.0 | 0.00 | 0.03 | 0.03 | 99 | 981.2 |
| 20260509053520 | 48 | 283 | 0.0 | 0.0 | 0.00 | 0.03 | 0.03 | 99 | 981.4 |
| 20260509053016 | 48 | 283 | 0.0 | 0.0 | 0.00 | 0.03 | 0.03 | 99 | 981.3 |
| 20260509052514 | 48 | 283 | 0.0 | 0.0 | 0.05 | 0.03 | 0.03 | 99 | 981.6 |
| 20260509052012 | 48 | 283 | 0.0 | 0.0 | 0.05 | 0.03 | 0.03 | 99 | 981.5 |
| 20260509051510 | 48 | 283 | 0.0 | 0.0 | 0.00 | 0.02 | 0.02 | 99 | 981.6 |
| 20260509051007 | 48 | 283 | 0.0 | 0.0 | 0.00 | 0.02 | 0.02 | 99 | 981.6 |
| 20260509050503 | 49 | 283 | 0.0 | 0.0 | 0.00 | 0.02 | 0.02 | 99 | 981.4 |
| 20260509050000 | 48 | 283 | 0.0 | 0.0 | 0.00 | 0.02 | 0.02 | 99 | 981.7 |
| 20260509045457 | 48 | 283 | 0.0 | 0.0 | 0.07 | 0.02 | 0.02 | 99 | 981.8 |
| 20260509044954 | 48 | 283 | 0.0 | 0.0 | 0.07 | 0.02 | 0.02 | 99 | 981.8 |
| 20260509044451 | 48 | 283 | 0.0 | 0.0 | 0.00 | 0.01 | 0.01 | 99 | 981.8 |
| 20260509043948 | 48 | 283 | 0.0 | 0.0 | 0.00 | 0.01 | 0.01 | 99 | 982.0 |
| 20260509043444 | 48 | 283 | 0.0 | 0.0 | 0.05 | 0.01 | 0.01 | 99 | 982.1 |
| 20260509042940 | 48 | 282 | 0.0 | 0.0 | 0.05 | 0.01 | 0.01 | 99 | 981.8 |
| 20260509042437 | 48 | 283 | 0.0 | 0.0 | 0.00 | 0.00 | 0.00 | 99 | 982.0 |
| 20260509041933 | 48 | 282 | 0.0 | 0.0 | 0.00 | 0.00 | 0.00 | 99 | 982.1 |
| 20260509041430 | 48 | 283 | 0.0 | 0.0 | 0.00 | 0.00 | 0.00 | 99 | 982.0 |
| 20260509040928 | 48 | 277 | 0.0 | 0.0 | 0.00 | 0.00 | 0.00 | 99 | 982.2 |
| 20260509040426 | 48 | 282 | 0.0 | 0.0 | 0.00 | 0.00 | 0.00 | 99 | 981.8 |
| 20260509035922 | 48 | 283 | 0.0 | 0.0 | 0.00 | 0.35 | 0.35 | 99 | 982.1 |
| 20260509035419 | 48 | 282 | 0.0 | 0.0 | 0.00 | 0.35 | 0.35 | 99 | 982.0 |
| 20260509034916 | 48 | 283 | 0.0 | 0.0 | 0.07 | 0.35 | 0.35 | 98 | 982.3 |
| 20260509034414 | 48 | 283 | 0.0 | 0.0 | 0.07 | 0.35 | 0.35 | 98 | 982.4 |
| 20260509033911 | 48 | 282 | 0.0 | 0.0 | 0.05 | 0.34 | 0.34 | 98 | 982.4 |
| 20260509033408 | 48 | 282 | 0.0 | 0.0 | 0.05 | 0.34 | 0.34 | 98 | 982.2 |
| 20260509032904 | 49 | 284 | 0.0 | 0.0 | 0.07 | 0.33 | 0.33 | 98 | 982.2 |
| 20260509032401 | 49 | 281 | 0.0 | 0.0 | 0.07 | 0.33 | 0.33 | 98 | 982.4 |
| 20260509031900 | 48 | 273 | 2.0 | 2.0 | 0.00 | 0.32 | 0.32 | 98 | 982.6 |
| 20260509031356 | 48 | 284 | 0.0 | 0.0 | 0.00 | 0.32 | 0.32 | 98 | 982.4 |
| 20260509030854 | 48 | 276 | 0.0 | 1.0 | 0.07 | 0.32 | 0.32 | 98 | 982.4 |
| 20260509030352 | 48 | 285 | 0.0 | 1.0 | 0.07 | 0.32 | 0.32 | 98 | 982.4 |
| 20260509025849 | 48 | 276 | 0.0 | 0.0 | 0.05 | 0.31 | 0.31 | 98 | 982.4 |
| 20260509025344 | 49 | 282 | 0.0 | 0.0 | 0.05 | 0.31 | 0.31 | 98 | 982.6 |
| 20260509024839 | 49 | 252 | 1.0 | 2.0 | 0.07 | 0.30 | 0.30 | 98 | 982.4 |
| 20260509024336 | 49 | 284 | 0.0 | 1.0 | 0.07 | 0.30 | 0.30 | 98 | 982.4 |
| 20260509023833 | 48 | 281 | 0.0 | 2.0 | 0.00 | 0.29 | 0.29 | 98 | 982.6 |
| 20260509023331 | 49 | 283 | 0.0 | 1.0 | 0.05 | 0.29 | 0.29 | 98 | 982.9 |
| 20260509022827 | 48 | 281 | 0.0 | 0.0 | 0.12 | 0.29 | 0.29 | 98 | 983.0 |
| 20260509022324 | 48 | 281 | 0.0 | 0.0 | 0.12 | 0.28 | 0.28 | 98 | 983.1 |
| 20260509021821 | 48 | 281 | 0.0 | 0.0 | 0.05 | 0.27 | 0.27 | 98 | 983.2 |
| 20260509021318 | 48 | 281 | 0.0 | 0.0 | 0.07 | 0.26 | 0.26 | 98 | 982.9 |
| 20260509020816 | 48 | 282 | 0.0 | 1.0 | 0.05 | 0.25 | 0.25 | 98 | 983.2 |
| 20260509020314 | 48 | 284 | 0.0 | 0.0 | 0.05 | 0.25 | 0.25 | 98 | 982.9 |
| 20260509015811 | 48 | 279 | 0.0 | 0.0 | 0.07 | 0.24 | 0.24 | 98 | 983.0 |
| 20260509015309 | 48 | 278 | 0.0 | 0.0 | 0.07 | 0.24 | 0.24 | 98 | 982.8 |
| 20260509014805 | 48 | 276 | 0.0 | 0.0 | 0.05 | 0.23 | 0.23 | 98 | 982.9 |
| 20260509014303 | 48 | 276 | 0.0 | 0.0 | 0.12 | 0.23 | 0.23 | 97 | 982.8 |
| 20260509013759 | 48 | 282 | 0.0 | 0.0 | 0.07 | 0.22 | 0.22 | 97 | 982.7 |
| 20260509013255 | 48 | 282 | 0.0 | 0.0 | 0.05 | 0.21 | 0.21 | 97 | 982.6 |
| 20260509012751 | 48 | 278 | 0.0 | 0.0 | 0.07 | 0.20 | 0.20 | 97 | 982.8 |
| 20260509012248 | 48 | 277 | 0.0 | 0.0 | 0.07 | 0.19 | 0.19 | 97 | 982.8 |
| 20260509011745 | 48 | 277 | 0.0 | 0.0 | 0.12 | 0.19 | 0.19 | 97 | 982.4 |
| 20260509011243 | 48 | 278 | 0.0 | 0.0 | 0.12 | 0.18 | 0.18 | 97 | 982.4 |
| 20260509010740 | 48 | 277 | 0.0 | 0.0 | 0.12 | 0.17 | 0.17 | 97 | 982.4 |
| 20260509010237 | 48 | 276 | 0.0 | 0.0 | 0.12 | 0.16 | 0.16 | 96 | 982.3 |
| 20260509005734 | 48 | 278 | 0.0 | 0.0 | 0.12 | 0.15 | 0.15 | 96 | 982.3 |
| 20260509005232 | 48 | 278 | 0.0 | 0.0 | 0.12 | 0.14 | 0.14 | 96 | 982.1 |
| 20260509004725 | 48 | 278 | 0.0 | 0.0 | 0.07 | 0.13 | 0.13 | 96 | 982.1 |
| 20260509004224 | 48 | 277 | 0.0 | 0.0 | 0.05 | 0.12 | 0.12 | 96 | 982.2 |
| 20260509003722 | 49 | 276 | 0.0 | 0.0 | 0.05 | 0.12 | 0.12 | 95 | 982.1 |
| 20260509003219 | 49 | 282 | 0.0 | 0.0 | 0.07 | 0.11 | 0.11 | 95 | 982.1 |
| 20260509002716 | 49 | 282 | 0.0 | 0.0 | 0.12 | 0.11 | 0.11 | 94 | 982.0 |
| 20260509002214 | 49 | 283 | 0.0 | 0.0 | 0.12 | 0.10 | 0.10 | 94 | 981.9 |
| 20260509001711 | 49 | 283 | 0.0 | 0.0 | 0.07 | 0.09 | 0.09 | 93 | 982.1 |
| 20260509001207 | 49 | 277 | 0.0 | 0.0 | 0.07 | 0.08 | 0.08 | 92 | 982.0 |
| 20260509000705 | 49 | 283 | 0.0 | 1.0 | 0.12 | 0.08 | 0.08 | 91 | 981.9 |
| 20260509000204 | 50 | 276 | 1.0 | 2.0 | 0.17 | 0.07 | 0.07 | 91 | 982.2 |
| 20260508235659 | 50 | 261 | 1.0 | 2.0 | 0.19 | 0.06 | 0.06 | 89 | 982.3 |
| 20260508235155 | 50 | 292 | 2.0 | 2.0 | 0.12 | 0.04 | 0.04 | 88 | 982.3 |
| 20260508234653 | 51 | 274 | 1.0 | 2.0 | 0.05 | 0.03 | 0.03 | 85 | 982.2 |
| 20260508234149 | 52 | 283 | 1.0 | 2.0 | 0.00 | 0.02 | 0.02 | 82 | 982.2 |
| 20260508233648 | 53 | 273 | 1.0 | 3.0 | 0.00 | 0.02 | 0.02 | 79 | 981.9 |
| 20260508233145 | 53 | 233 | 3.0 | 5.0 | 0.00 | 0.02 | 0.02 | 77 | 982.0 |
| 20260508232643 | 53 | 276 | 0.0 | 2.0 | 0.00 | 0.02 | 0.02 | 77 | 981.7 |
| 20260508232139 | 53 | 283 | 0.0 | 5.0 | 0.00 | 0.02 | 0.02 | 75 | 981.7 |
| 20260508231637 | 53 | 275 | 0.0 | 1.0 | 0.00 | 0.02 | 0.02 | 76 | 981.6 |
| 20260508231134 | 54 | 275 | 0.0 | 3.0 | 0.00 | 0.02 | 0.02 | 75 | 981.4 |
| 20260508230630 | 54 | 269 | 2.0 | 3.0 | 0.00 | 0.02 | 0.02 | 76 | 981.4 |
| 20260508230127 | 54 | 252 | 2.0 | 3.0 | 0.00 | 0.02 | 0.02 | 74 | 981.7 |
| 20260508225625 | 54 | 272 | 0.0 | 3.0 | 0.00 | 0.02 | 0.02 | 74 | 981.4 |
| 20260508225121 | 54 | 276 | 1.0 | 3.0 | 0.00 | 0.02 | 0.02 | 75 | 981.6 |
| 20260508224619 | 54 | 282 | 2.0 | 2.0 | 0.00 | 0.02 | 0.02 | 74 | 981.5 |